createdAt,value
2023-02-08T00:00:09.843Z,94.20
2023-02-08T00:02:36.557Z,95.09
2023-02-08T00:05:06.413Z,94.83
2023-02-08T00:07:33.072Z,94.86
2023-02-08T00:09:59.818Z,95.81
2023-02-08T00:12:28.250Z,96.28
2023-02-08T00:14:54.907Z,97.22
2023-02-08T00:17:23.724Z,97.37
2023-02-08T00:19:50.378Z,96.47
2023-02-08T00:22:17.059Z,96.70
2023-02-08T00:24:43.646Z,95.99
2023-02-08T00:27:10.292Z,95.60
2023-02-08T00:29:36.960Z,94.82
2023-02-08T00:32:04.356Z,95.01
2023-02-08T00:34:31.138Z,94.53
2023-02-08T00:36:57.719Z,94.86
2023-02-08T00:39:24.692Z,94.44
2023-02-08T00:41:51.426Z,94.49
2023-02-08T00:44:18.888Z,94.53
2023-02-08T00:46:45.447Z,94.26
2023-02-08T00:49:12.134Z,94.18
2023-02-08T00:51:38.699Z,94.06
2023-02-08T00:54:05.313Z,93.83
2023-02-08T00:56:31.894Z,93.86
2023-02-08T00:58:58.564Z,93.65
2023-02-08T01:01:25.144Z,93.73
2023-02-08T01:03:51.836Z,93.37
2023-02-08T01:06:18.599Z,93.68
2023-02-08T01:08:45.350Z,93.53
2023-02-08T01:11:18.648Z,93.59
2023-02-08T01:13:45.821Z,93.26
2023-02-08T01:16:15.919Z,92.92
2023-02-08T01:18:45.711Z,93.54
2023-02-08T01:21:15.375Z,93.28
2023-02-08T01:23:42.537Z,93.19
2023-02-08T01:26:10.179Z,93.19
2023-02-08T01:28:37.193Z,94.53
2023-02-08T01:31:09.661Z,94.47
2023-02-08T01:33:36.397Z,94.39
2023-02-08T01:36:04.119Z,94.26
2023-02-08T01:38:31.403Z,94.39
2023-02-08T01:40:58.184Z,94.84
2023-02-08T01:43:26.083Z,94.52
2023-02-08T01:45:52.834Z,94.40
2023-02-08T01:48:41.400Z,93.82
2023-02-08T01:51:12.533Z,93.48
2023-02-08T01:53:40.487Z,93.92
2023-02-08T01:56:17.489Z,93.85
2023-02-08T01:58:49.316Z,94.56
2023-02-08T02:01:16.441Z,94.28
2023-02-08T02:03:43.760Z,94.56
2023-02-08T02:06:15.473Z,94.67
2023-02-08T02:08:49.286Z,94.74
2023-02-08T02:11:16.690Z,94.99
2023-02-08T02:13:44.192Z,95.18
2023-02-08T02:16:10.884Z,94.60
2023-02-08T02:18:37.822Z,94.46
2023-02-08T02:21:31.674Z,94.24
2023-02-08T02:24:16.888Z,94.20
2023-02-08T02:27:19.505Z,93.65
2023-02-08T02:30:18.346Z,93.76
2023-02-08T02:33:06.841Z,94.26
2023-02-08T02:35:45.983Z,94.46
2023-02-08T02:38:31.365Z,94.38
2023-02-08T02:41:03.845Z,94.27
2023-02-08T02:43:42.354Z,94.08
2023-02-08T02:46:08.985Z,94.00
2023-02-08T02:48:50.125Z,94.17
2023-02-08T02:51:19.433Z,94.04
2023-02-08T02:54:09.158Z,93.91
2023-02-08T02:56:42.611Z,93.68
2023-02-08T02:59:11.856Z,94.28
2023-02-08T03:01:38.919Z,94.35
2023-02-08T03:04:33.516Z,94.38
2023-02-08T03:07:06.011Z,94.62
2023-02-08T03:09:47.850Z,94.86
2023-02-08T03:12:26.603Z,95.02
2023-02-08T03:14:56.006Z,95.04
2023-02-08T03:17:48.645Z,94.71
2023-02-08T03:20:23.353Z,94.49
2023-02-08T03:23:00.485Z,94.55
2023-02-08T03:25:49.768Z,94.57
2023-02-08T03:28:16.336Z,94.31
2023-02-08T03:31:12.873Z,94.34
2023-02-08T03:34:04.465Z,93.90
2023-02-08T03:36:50.462Z,93.77
2023-02-08T03:39:23.006Z,93.58
2023-02-08T03:41:53.048Z,93.67
2023-02-08T03:44:30.211Z,93.95
2023-02-08T03:47:02.805Z,93.80
2023-02-08T03:49:34.199Z,93.92
2023-02-08T03:52:04.142Z,93.83
2023-02-08T03:54:35.262Z,93.81
2023-02-08T03:57:33.528Z,94.02
2023-02-08T04:00:11.274Z,94.06
2023-02-08T04:02:42.279Z,94.15
2023-02-08T04:05:09.978Z,94.24
2023-02-08T04:07:37.115Z,94.94
2023-02-08T04:10:04.745Z,95.42
2023-02-08T04:12:31.451Z,95.38
2023-02-08T04:14:58.089Z,95.43
2023-02-08T04:17:24.748Z,96.03
2023-02-08T04:19:51.387Z,95.44
2023-02-08T04:22:18.078Z,95.46
2023-02-08T04:24:44.745Z,96.00
2023-02-08T04:27:11.379Z,96.69
2023-02-08T04:29:38.066Z,96.79
2023-02-08T04:32:05.126Z,97.25
2023-02-08T04:34:31.817Z,97.43
2023-02-08T04:36:58.587Z,97.39
2023-02-08T04:39:25.409Z,97.07
2023-02-08T04:41:52.035Z,97.12
2023-02-08T04:44:18.662Z,96.60
2023-02-08T04:46:45.363Z,96.08
2023-02-08T04:49:11.983Z,96.24
2023-02-08T04:51:38.808Z,96.43
2023-02-08T04:54:05.548Z,95.98
2023-02-08T04:56:32.275Z,95.59
2023-02-08T04:58:59.239Z,95.47
2023-02-08T05:01:25.896Z,95.19
2023-02-08T05:03:52.601Z,95.16
2023-02-08T05:06:19.249Z,94.70
2023-02-08T05:08:45.892Z,94.71
2023-02-08T05:11:12.650Z,94.43
2023-02-08T05:13:39.313Z,94.61
2023-02-08T05:16:06.148Z,94.37
2023-02-08T05:18:32.792Z,94.11
2023-02-08T05:21:01.273Z,94.06
2023-02-08T05:23:28.471Z,94.09
2023-02-08T05:25:55.409Z,94.07
2023-02-08T05:28:22.422Z,93.86
2023-02-08T05:30:49.333Z,94.07
2023-02-08T05:33:16.051Z,94.01
2023-02-08T05:35:45.090Z,94.05
2023-02-08T05:38:11.735Z,93.89
2023-02-08T05:40:38.451Z,94.63
2023-02-08T05:43:05.154Z,94.29
2023-02-08T05:45:31.805Z,94.09
2023-02-08T05:47:58.497Z,94.01
2023-02-08T05:50:25.154Z,94.01
2023-02-08T05:52:51.929Z,94.06
2023-02-08T05:55:18.612Z,94.11
2023-02-08T05:57:45.243Z,94.04
2023-02-08T06:00:12.572Z,94.55
2023-02-08T06:02:39.188Z,94.68
2023-02-08T06:05:06.108Z,94.75
2023-02-08T06:07:32.688Z,94.48
2023-02-08T06:09:59.321Z,94.70
2023-02-08T06:12:26.010Z,94.88
2023-02-08T06:14:52.763Z,94.24
2023-02-08T06:17:19.428Z,94.43
2023-02-08T06:19:46.076Z,93.98
2023-02-08T06:22:12.875Z,94.56
2023-02-08T06:24:39.479Z,95.13
2023-02-08T06:27:06.349Z,94.80
2023-02-08T06:29:32.936Z,95.02
2023-02-08T06:31:59.684Z,95.41
2023-02-08T06:34:26.407Z,95.34
2023-02-08T06:36:53.138Z,95.79
2023-02-08T06:39:19.717Z,95.23
2023-02-08T06:41:46.391Z,94.80
2023-02-08T06:44:13.132Z,95.49
2023-02-08T06:46:39.828Z,94.82
2023-02-08T06:49:06.559Z,94.58
2023-02-08T06:51:33.197Z,94.47
2023-02-08T06:53:59.811Z,94.84
2023-02-08T06:56:26.533Z,94.40
2023-02-08T06:58:53.117Z,94.60
2023-02-08T07:01:19.891Z,94.40
2023-02-08T07:03:46.571Z,94.59
2023-02-08T07:06:14.422Z,94.93
2023-02-08T07:08:41.089Z,95.06
2023-02-08T07:11:09.793Z,95.02
2023-02-08T07:13:36.998Z,95.23
2023-02-08T07:16:04.779Z,95.14
2023-02-08T07:18:31.611Z,95.32
2023-02-08T07:20:58.246Z,95.53
2023-02-08T07:23:25.208Z,95.35
2023-02-08T07:26:02.020Z,94.93
2023-02-08T07:28:28.818Z,95.38
2023-02-08T07:30:55.571Z,95.22
2023-02-08T07:33:23.473Z,95.29
2023-02-08T07:35:50.668Z,95.78
2023-02-08T07:38:20.640Z,95.47
2023-02-08T07:40:47.541Z,95.22
2023-02-08T07:43:14.334Z,95.24
2023-02-08T07:45:41.019Z,95.52
2023-02-08T07:48:07.716Z,96.13
2023-02-08T07:50:34.364Z,95.95
2023-02-08T07:53:01.001Z,96.23
2023-02-08T07:55:27.760Z,95.77
2023-02-08T07:57:55.935Z,95.74
2023-02-08T08:00:22.783Z,96.18
2023-02-08T08:02:51.297Z,96.51
2023-02-08T08:05:17.960Z,96.45
2023-02-08T08:07:44.627Z,96.63
2023-02-08T08:10:11.298Z,96.36
2023-02-08T08:12:38.176Z,96.36
2023-02-08T08:15:05.251Z,95.81
2023-02-08T08:17:31.898Z,96.07
2023-02-08T08:19:58.551Z,96.32
2023-02-08T08:22:25.211Z,96.25
2023-02-08T08:24:51.854Z,96.26
2023-02-08T08:27:18.552Z,96.27
2023-02-08T08:29:45.182Z,96.46
2023-02-08T08:32:11.986Z,97.16
2023-02-08T08:34:38.667Z,97.84
2023-02-08T08:37:05.311Z,98.95
2023-02-08T08:39:32.277Z,100.00
2023-02-08T08:42:00.207Z,100.00
2023-02-08T08:44:29.287Z,100.00
2023-02-08T08:46:57.429Z,99.87
2023-02-08T08:49:25.488Z,100.00
2023-02-08T08:51:52.393Z,100.00
2023-02-08T08:54:20.194Z,99.83
2023-02-08T08:56:46.962Z,99.38
2023-02-08T08:59:14.027Z,98.81
2023-02-08T09:01:42.380Z,98.22
2023-02-08T09:04:12.089Z,97.65
2023-02-08T09:06:38.951Z,97.76
2023-02-08T09:09:06.305Z,97.89
2023-02-08T09:11:33.443Z,98.05
2023-02-08T09:14:04.781Z,97.72
2023-02-08T09:16:32.630Z,97.51
2023-02-08T09:19:06.872Z,96.85
2023-02-08T09:21:34.349Z,96.69
2023-02-08T09:24:02.012Z,96.65
2023-02-08T09:26:29.133Z,96.40
2023-02-08T09:28:56.111Z,96.34
2023-02-08T09:31:28.226Z,96.46
2023-02-08T09:33:57.839Z,96.36
2023-02-08T09:36:26.834Z,96.27
2023-02-08T09:39:02.861Z,96.23
2023-02-08T09:42:08.249Z,97.27
2023-02-08T09:44:41.410Z,96.80
2023-02-08T09:47:26.763Z,96.49
2023-02-08T09:50:06.098Z,96.74
2023-02-08T09:52:47.869Z,97.60
2023-02-08T09:55:29.116Z,97.06
2023-02-08T09:58:03.768Z,96.74
2023-02-08T10:00:45.669Z,94.21
2023-02-08T10:03:45.032Z,94.35
2023-02-08T10:06:17.821Z,93.81
2023-02-08T10:08:46.434Z,92.99
2023-02-08T10:11:13.008Z,91.37
2023-02-08T10:13:58.358Z,90.66
2023-02-08T10:16:38.825Z,88.79
2023-02-08T10:19:25.157Z,89.53
2023-02-08T10:22:13.364Z,88.74
2023-02-08T10:25:14.869Z,88.73
2023-02-08T10:27:50.791Z,86.70
2023-02-08T10:31:14.766Z,87.34
2023-02-08T10:34:01.371Z,86.38
2023-02-08T10:36:35.093Z,85.00
2023-02-08T10:39:03.668Z,86.14
2023-02-08T10:41:36.438Z,80.81
2023-02-08T10:44:16.538Z,79.85
2023-02-08T10:47:14.116Z,80.45
2023-02-08T10:50:07.268Z,82.12
2023-02-08T10:52:33.957Z,77.34
2023-02-08T10:55:01.058Z,76.89
2023-02-08T10:57:32.065Z,76.77
2023-02-08T11:00:09.714Z,77.34
2023-02-08T11:02:41.686Z,77.68
2023-02-08T11:05:14.059Z,79.49
2023-02-08T11:07:41.002Z,79.20
2023-02-08T11:10:20.257Z,80.15
2023-02-08T11:12:57.761Z,79.58
2023-02-08T11:15:36.057Z,77.97
2023-02-08T11:18:06.223Z,77.86
2023-02-08T11:20:38.861Z,76.76
2023-02-08T11:23:37.592Z,76.51
2023-02-08T11:26:36.923Z,73.73
2023-02-08T11:29:15.464Z,73.74
2023-02-08T11:32:01.177Z,73.65
2023-02-08T11:34:35.748Z,75.05
2023-02-08T11:37:28.735Z,74.22
2023-02-08T11:40:00.578Z,74.24
2023-02-08T11:42:36.194Z,76.73
2023-02-08T11:45:04.812Z,74.43
2023-02-08T11:47:35.266Z,74.43
2023-02-08T11:50:05.556Z,74.52
2023-02-08T11:52:36.178Z,75.67
2023-02-08T11:55:21.525Z,75.95
2023-02-08T11:58:24.297Z,74.05
2023-02-08T12:01:01.826Z,74.77
2023-02-08T12:03:33.815Z,75.36
2023-02-08T12:06:11.287Z,76.01
2023-02-08T12:09:02.157Z,75.86
2023-02-08T12:11:45.968Z,75.58
2023-02-08T12:14:40.012Z,75.94
2023-02-08T12:17:21.825Z,76.03
2023-02-08T12:20:29.786Z,75.57
2023-02-08T12:23:17.589Z,75.09
2023-02-08T12:25:50.842Z,73.98
2023-02-08T12:28:44.139Z,74.59
2023-02-08T12:31:28.057Z,72.77
2023-02-08T12:34:03.935Z,71.66
2023-02-08T12:36:49.735Z,71.46
2023-02-08T12:39:46.884Z,69.96
2023-02-08T12:42:38.528Z,70.24
2023-02-08T12:45:09.442Z,66.55
2023-02-08T12:48:02.979Z,65.17
2023-02-08T12:50:41.626Z,64.01
2023-02-08T12:53:38.975Z,62.13
2023-02-08T12:56:16.773Z,63.46
2023-02-08T12:58:50.700Z,64.66
2023-02-08T13:01:29.496Z,64.25
2023-02-08T13:04:19.309Z,61.50
2023-02-08T13:06:53.685Z,61.05
2023-02-08T13:09:41.996Z,62.88
2023-02-08T13:12:24.716Z,61.66
2023-02-08T13:15:28.570Z,59.05
2023-02-08T13:18:22.324Z,59.47
2023-02-08T13:21:08.194Z,57.46
2023-02-08T13:23:51.608Z,57.72
2023-02-08T13:26:26.492Z,60.03
2023-02-08T13:28:56.151Z,57.53
2023-02-08T13:31:44.982Z,55.55
2023-02-08T13:34:22.592Z,54.54
2023-02-08T13:36:52.364Z,54.08
2023-02-08T13:39:25.188Z,53.51
2023-02-08T13:41:55.516Z,54.24
2023-02-08T13:44:30.508Z,52.82
2023-02-08T13:46:57.381Z,54.17
2023-02-08T13:49:55.164Z,56.17
2023-02-08T13:52:47.148Z,53.66
2023-02-08T13:55:36.245Z,52.32
2023-02-08T13:58:28.647Z,53.47
2023-02-08T14:00:55.299Z,53.11
2023-02-08T14:03:33.565Z,52.33
2023-02-08T14:06:17.216Z,54.45
2023-02-08T14:08:59.144Z,50.71
2023-02-08T14:11:46.546Z,51.81
2023-02-08T14:14:16.308Z,51.82
2023-02-08T14:17:06.835Z,51.71
2023-02-08T14:19:43.175Z,53.01
2023-02-08T14:22:13.035Z,50.69
2023-02-08T14:24:47.605Z,51.45
2023-02-08T14:27:20.715Z,51.68
2023-02-08T14:30:16.418Z,52.89
2023-02-08T14:32:46.767Z,55.17
2023-02-08T14:35:13.305Z,55.66
2023-02-08T14:37:41.520Z,56.84
2023-02-08T14:40:16.896Z,56.14
2023-02-08T14:43:03.823Z,55.41
2023-02-08T14:45:39.078Z,55.07
2023-02-08T14:48:23.929Z,56.92
2023-02-08T14:51:11.769Z,57.73
2023-02-08T14:53:50.131Z,57.68
2023-02-08T14:56:25.875Z,58.80
2023-02-08T14:59:13.639Z,59.44
2023-02-08T15:02:01.372Z,59.07
2023-02-08T15:04:28.986Z,58.88
2023-02-08T15:07:25.690Z,60.11
2023-02-08T15:09:52.395Z,60.90
2023-02-08T15:12:21.937Z,59.90
2023-02-08T15:14:49.056Z,60.17
2023-02-08T15:17:34.091Z,60.79
2023-02-08T15:20:04.124Z,60.55
2023-02-08T15:22:35.990Z,61.08
2023-02-08T15:25:28.263Z,62.00
2023-02-08T15:28:02.196Z,61.70
2023-02-08T15:30:37.885Z,62.48
2023-02-08T15:33:10.698Z,62.03
2023-02-08T15:35:37.519Z,63.14
2023-02-08T15:38:05.524Z,63.53
2023-02-08T15:40:34.596Z,65.42
2023-02-08T15:43:20.322Z,67.28
2023-02-08T15:45:57.106Z,67.48
2023-02-08T15:48:25.065Z,67.80
2023-02-08T15:50:53.601Z,68.02
2023-02-08T15:53:20.950Z,67.69
2023-02-08T15:55:58.050Z,68.64
2023-02-08T15:58:40.650Z,67.78
2023-02-08T16:01:09.280Z,67.87
2023-02-08T16:03:36.994Z,67.34
2023-02-08T16:06:07.112Z,67.24
2023-02-08T16:08:41.906Z,67.54
2023-02-08T16:11:15.840Z,67.68
2023-02-08T16:13:48.581Z,67.55
2023-02-08T16:16:35.174Z,68.19
2023-02-08T16:19:04.043Z,69.23
2023-02-08T16:21:43.867Z,69.10
2023-02-08T16:24:13.322Z,69.59
2023-02-08T16:26:44.750Z,69.75
2023-02-08T16:29:21.962Z,70.00
2023-02-08T16:32:00.997Z,69.83
2023-02-08T16:34:28.756Z,69.92
2023-02-08T16:36:55.550Z,70.10
2023-02-08T16:39:36.619Z,70.10
2023-02-08T16:42:19.871Z,70.78
2023-02-08T16:45:08.641Z,70.68
2023-02-08T16:47:43.737Z,71.00
2023-02-08T16:50:22.526Z,70.74
2023-02-08T16:52:54.126Z,71.23
2023-02-08T16:55:25.014Z,72.07
2023-02-08T16:57:57.591Z,72.11
2023-02-08T17:00:35.107Z,72.04
2023-02-08T17:03:01.888Z,72.40
2023-02-08T17:05:36.678Z,74.15
2023-02-08T17:08:10.020Z,73.84
2023-02-08T17:10:36.660Z,74.67
2023-02-08T17:13:19.293Z,74.75
2023-02-08T17:15:49.131Z,75.51
2023-02-08T17:18:16.011Z,75.50
2023-02-08T17:20:43.369Z,75.00
2023-02-08T17:23:10.110Z,75.21
2023-02-08T17:25:36.944Z,76.07
2023-02-08T17:28:18.803Z,75.76
2023-02-08T17:30:46.497Z,75.90
2023-02-08T17:33:19.812Z,76.26
2023-02-08T17:35:48.828Z,76.48
2023-02-08T17:38:15.712Z,76.81
2023-02-08T17:40:43.961Z,76.56
2023-02-08T17:43:12.160Z,76.75
2023-02-08T17:45:42.198Z,78.69
2023-02-08T17:48:09.370Z,77.19
2023-02-08T17:50:36.639Z,78.17
2023-02-08T17:53:04.072Z,78.57
2023-02-08T17:55:31.741Z,79.48
2023-02-08T17:57:58.708Z,78.68
2023-02-08T18:00:25.977Z,78.27
2023-02-08T18:02:55.328Z,78.17
2023-02-08T18:05:25.930Z,77.84
2023-02-08T18:07:54.636Z,78.37
2023-02-08T18:10:22.783Z,78.51
2023-02-08T18:12:49.635Z,78.41
2023-02-08T18:15:22.558Z,78.75
2023-02-08T18:17:50.447Z,79.47
2023-02-08T18:20:17.764Z,79.14
2023-02-08T18:22:44.602Z,79.72
2023-02-08T18:25:13.103Z,79.55
2023-02-08T18:27:40.193Z,79.57
2023-02-08T18:30:07.386Z,79.66
2023-02-08T18:32:34.239Z,81.58
2023-02-08T18:35:03.597Z,82.43
2023-02-08T18:37:33.217Z,82.61
2023-02-08T18:40:00.364Z,82.41
2023-02-08T18:42:27.199Z,81.75
2023-02-08T18:44:53.961Z,82.18
2023-02-08T18:47:20.609Z,82.94
2023-02-08T18:49:47.865Z,84.46
2023-02-08T18:52:17.483Z,84.16
2023-02-08T18:54:44.146Z,83.27
2023-02-08T18:57:10.890Z,82.99
2023-02-08T18:59:38.691Z,83.23
2023-02-08T19:02:07.300Z,83.25
2023-02-08T19:04:38.713Z,83.07
2023-02-08T19:07:06.970Z,83.71
2023-02-08T19:09:38.578Z,83.45
2023-02-08T19:12:07.555Z,83.65
2023-02-08T19:14:35.366Z,83.08
2023-02-08T19:17:02.602Z,83.67
2023-02-08T19:19:29.531Z,84.11
2023-02-08T19:21:56.283Z,83.68
2023-02-08T19:24:23.119Z,85.80
2023-02-08T19:26:50.122Z,85.54
2023-02-08T19:29:22.347Z,86.91
2023-02-08T19:31:51.380Z,87.75
2023-02-08T19:34:19.477Z,86.31
2023-02-08T19:36:52.702Z,86.22
2023-02-08T19:39:25.956Z,87.85
2023-02-08T19:41:54.287Z,88.81
2023-02-08T19:44:24.656Z,90.35
2023-02-08T19:46:59.370Z,91.15
2023-02-08T19:49:27.415Z,91.95
2023-02-08T19:51:54.970Z,91.15
2023-02-08T19:54:22.105Z,92.41
2023-02-08T19:56:54.797Z,90.59
2023-02-08T19:59:28.814Z,90.42
2023-02-08T20:02:03.036Z,90.48
2023-02-08T20:04:30.059Z,90.43
2023-02-08T20:06:56.897Z,89.81
2023-02-08T20:09:27.139Z,89.25
2023-02-08T20:11:57.216Z,89.31
2023-02-08T20:14:25.512Z,88.51
2023-02-08T20:16:55.931Z,88.43
2023-02-08T20:19:23.028Z,89.08
2023-02-08T20:21:55.569Z,88.29
2023-02-08T20:24:22.635Z,88.13
2023-02-08T20:26:50.201Z,88.04
2023-02-08T20:29:18.058Z,90.44
2023-02-08T20:31:48.920Z,89.64
2023-02-08T20:34:18.731Z,89.15
2023-02-08T20:37:06.945Z,89.86
2023-02-08T20:39:38.189Z,89.23
2023-02-08T20:42:08.730Z,88.94
2023-02-08T20:44:35.843Z,88.92
2023-02-08T20:47:02.926Z,90.10
2023-02-08T20:49:32.193Z,90.88
2023-02-08T20:51:58.954Z,89.95
2023-02-08T20:54:25.737Z,90.86
2023-02-08T20:56:54.006Z,91.23
2023-02-08T20:59:21.421Z,90.97
2023-02-08T21:01:49.635Z,91.22
2023-02-08T21:04:18.129Z,90.51
2023-02-08T21:06:47.534Z,89.97
2023-02-08T21:09:16.570Z,89.79
2023-02-08T21:11:44.772Z,89.83
2023-02-08T21:14:19.266Z,89.80
2023-02-08T21:16:48.983Z,88.85
2023-02-08T21:19:17.696Z,89.03
2023-02-08T21:21:44.533Z,89.06
2023-02-08T21:24:11.470Z,90.11
2023-02-08T21:26:38.108Z,90.10
2023-02-08T21:29:06.210Z,89.77
2023-02-08T21:31:34.570Z,89.22
2023-02-08T21:34:04.033Z,89.56
2023-02-08T21:36:30.807Z,90.13
2023-02-08T21:38:58.061Z,90.10
2023-02-08T21:41:28.067Z,89.60
2023-02-08T21:43:57.876Z,89.88
2023-02-08T21:46:25.371Z,90.48
2023-02-08T21:49:11.016Z,90.52
2023-02-08T21:51:56.375Z,90.19
2023-02-08T21:54:43.904Z,91.56
2023-02-08T21:57:24.026Z,91.28
2023-02-08T21:59:53.169Z,92.01
2023-02-08T22:02:29.108Z,92.40
2023-02-08T22:05:16.507Z,93.56
2023-02-08T22:07:54.744Z,93.98
2023-02-08T22:10:24.999Z,94.73
2023-02-08T22:12:53.267Z,93.66
2023-02-08T22:15:22.729Z,94.08
2023-02-08T22:17:57.846Z,93.26
2023-02-08T22:20:24.913Z,93.23
2023-02-08T22:22:54.853Z,92.72
2023-02-08T22:25:22.512Z,93.06
2023-02-08T22:27:49.357Z,95.73
2023-02-08T22:30:17.966Z,95.22
2023-02-08T22:32:46.178Z,95.08
2023-02-08T22:35:14.114Z,95.19
2023-02-08T22:37:40.989Z,95.19
2023-02-08T22:40:08.409Z,94.97
2023-02-08T22:42:35.129Z,94.92
2023-02-08T22:45:02.132Z,94.76
2023-02-08T22:47:28.755Z,94.46
2023-02-08T22:49:58.679Z,94.67
2023-02-08T22:52:25.999Z,94.35
2023-02-08T22:54:53.685Z,93.71
2023-02-08T22:57:20.795Z,93.74
2023-02-08T22:59:47.772Z,93.10
2023-02-08T23:02:17.652Z,93.56
2023-02-08T23:04:44.713Z,94.60
2023-02-08T23:07:11.341Z,94.49
2023-02-08T23:09:38.139Z,93.72
2023-02-08T23:12:05.194Z,93.20
2023-02-08T23:14:32.887Z,93.66
2023-02-08T23:17:00.121Z,93.86
2023-02-08T23:19:27.097Z,94.18
2023-02-08T23:21:53.817Z,94.25
2023-02-08T23:24:20.552Z,95.23
2023-02-08T23:26:47.809Z,96.71
2023-02-08T23:29:14.495Z,95.47
2023-02-08T23:31:41.438Z,95.39
2023-02-08T23:34:08.177Z,95.37
2023-02-08T23:36:34.860Z,95.32
2023-02-08T23:39:01.528Z,94.72
2023-02-08T23:41:28.155Z,94.32
2023-02-08T23:43:54.799Z,94.11
2023-02-08T23:46:24.291Z,94.18
2023-02-08T23:48:51.701Z,93.99
2023-02-08T23:51:20.902Z,93.69
2023-02-08T23:53:47.954Z,94.22
2023-02-08T23:56:21.259Z,94.41
2023-02-08T23:58:49.824Z,95.95
